sensor_id;sensor_type;location;lat;lon;timestamp;temperature;humidity
30594;DHT22;33199;47.590;8.300;2022-12-18T00:01:25;6.10;77.00
30594;DHT22;33199;47.590;8.300;2022-12-18T00:03:53;6.10;77.00
30594;DHT22;33199;47.590;8.300;2022-12-18T00:06:19;6.10;77.00
30594;DHT22;33199;47.590;8.300;2022-12-18T00:08:45;6.10;76.90
30594;DHT22;33199;47.590;8.300;2022-12-18T00:11:11;6.10;76.90
30594;DHT22;33199;47.590;8.300;2022-12-18T00:13:37;6.10;77.00
30594;DHT22;33199;47.590;8.300;2022-12-18T00:16:04;6.10;76.90
30594;DHT22;33199;47.590;8.300;2022-12-18T00:18:29;6.10;77.00
30594;DHT22;33199;47.590;8.300;2022-12-18T00:20:58;6.10;77.10
30594;DHT22;33199;47.590;8.300;2022-12-18T00:23:23;6.10;77.10
30594;DHT22;33199;47.590;8.300;2022-12-18T00:25:49;6.10;77.00
30594;DHT22;33199;47.590;8.300;2022-12-18T00:28:14;6.10;77.00
30594;DHT22;33199;47.590;8.300;2022-12-18T00:30:40;6.10;77.00
30594;DHT22;33199;47.590;8.300;2022-12-18T00:33:05;6.10;77.90
30594;DHT22;33199;47.590;8.300;2022-12-18T00:35:31;6.10;77.00
30594;DHT22;33199;47.590;8.300;2022-12-18T00:37:56;6.10;77.10
30594;DHT22;33199;47.590;8.300;2022-12-18T00:40:22;6.10;77.10
30594;DHT22;33199;47.590;8.300;2022-12-18T00:42:49;6.10;77.10
30594;DHT22;33199;47.590;8.300;2022-12-18T00:45:24;6.10;77.10
30594;DHT22;33199;47.590;8.300;2022-12-18T00:47:50;6.10;77.10
30594;DHT22;33199;47.590;8.300;2022-12-18T00:50:16;6.10;77.10
30594;DHT22;33199;47.590;8.300;2022-12-18T00:52:41;6.10;77.20
30594;DHT22;33199;47.590;8.300;2022-12-18T00:55:07;6.10;77.10
30594;DHT22;33199;47.590;8.300;2022-12-18T00:57:33;6.10;77.20
30594;DHT22;33199;47.590;8.300;2022-12-18T00:59:58;6.10;77.20
30594;DHT22;33199;47.590;8.300;2022-12-18T01:02:24;6.10;77.10
30594;DHT22;33199;47.590;8.300;2022-12-18T01:04:50;6.10;77.10
30594;DHT22;33199;47.590;8.300;2022-12-18T01:07:15;6.10;77.10
30594;DHT22;33199;47.590;8.300;2022-12-18T01:09:41;6.10;77.10
30594;DHT22;33199;47.590;8.300;2022-12-18T01:12:06;6.10;77.80
30594;DHT22;33199;47.590;8.300;2022-12-18T01:14:32;6.10;77.10
30594;DHT22;33199;47.590;8.300;2022-12-18T01:16:57;6.10;77.10
30594;DHT22;33199;47.590;8.300;2022-12-18T01:19:23;6.10;77.10
30594;DHT22;33199;47.590;8.300;2022-12-18T01:21:49;6.10;77.10
30594;DHT22;33199;47.590;8.300;2022-12-18T01:24:14;6.10;77.10
30594;DHT22;33199;47.590;8.300;2022-12-18T01:26:40;6.10;77.10
30594;DHT22;33199;47.590;8.300;2022-12-18T01:29:05;6.10;77.10
30594;DHT22;33199;47.590;8.300;2022-12-18T01:31:32;6.10;77.10
30594;DHT22;33199;47.590;8.300;2022-12-18T01:33:59;6.10;77.10
30594;DHT22;33199;47.590;8.300;2022-12-18T01:36:26;6.10;77.20
30594;DHT22;33199;47.590;8.300;2022-12-18T01:38:52;6.10;77.10
30594;DHT22;33199;47.590;8.300;2022-12-18T01:41:20;6.10;77.20
30594;DHT22;33199;47.590;8.300;2022-12-18T01:46:18;6.10;77.10
30594;DHT22;33199;47.590;8.300;2022-12-18T01:48:44;6.10;77.10
30594;DHT22;33199;47.590;8.300;2022-12-18T01:51:10;6.10;77.10
30594;DHT22;33199;47.590;8.300;2022-12-18T01:53:38;6.10;77.10
30594;DHT22;33199;47.590;8.300;2022-12-18T01:56:04;6.10;77.20
30594;DHT22;33199;47.590;8.300;2022-12-18T01:58:32;6.10;77.10
30594;DHT22;33199;47.590;8.300;2022-12-18T02:01:02;6.10;77.20
30594;DHT22;33199;47.590;8.300;2022-12-18T02:03:27;6.10;77.20
30594;DHT22;33199;47.590;8.300;2022-12-18T02:05:57;6.10;77.10
30594;DHT22;33199;47.590;8.300;2022-12-18T02:08:31;6.10;77.10
30594;DHT22;33199;47.590;8.300;2022-12-18T02:15:52;6.10;77.10
30594;DHT22;33199;47.590;8.300;2022-12-18T02:18:22;6.10;77.20
30594;DHT22;33199;47.590;8.300;2022-12-18T02:23:58;6.10;77.10
30594;DHT22;33199;47.590;8.300;2022-12-18T02:26:37;6.10;77.10
30594;DHT22;33199;47.590;8.300;2022-12-18T02:29:08;6.10;77.10
30594;DHT22;33199;47.590;8.300;2022-12-18T02:31:36;6.10;77.10
30594;DHT22;33199;47.590;8.300;2022-12-18T02:34:03;6.10;77.10
30594;DHT22;33199;47.590;8.300;2022-12-18T02:36:29;6.10;77.10
30594;DHT22;33199;47.590;8.300;2022-12-18T02:38:58;6.10;77.10
30594;DHT22;33199;47.590;8.300;2022-12-18T02:41:24;6.10;77.10
30594;DHT22;33199;47.590;8.300;2022-12-18T02:43:58;6.10;77.10
30594;DHT22;33199;47.590;8.300;2022-12-18T02:46:25;6.10;77.20
30594;DHT22;33199;47.590;8.300;2022-12-18T02:48:53;6.10;77.10
30594;DHT22;33199;47.590;8.300;2022-12-18T02:53:50;6.10;77.20
30594;DHT22;33199;47.590;8.300;2022-12-18T02:56:26;6.10;77.10
30594;DHT22;33199;47.590;8.300;2022-12-18T03:01:31;6.10;77.10
30594;DHT22;33199;47.590;8.300;2022-12-18T03:04:10;6.10;77.10
30594;DHT22;33199;47.590;8.300;2022-12-18T03:06:41;6.10;77.20
30594;DHT22;33199;47.590;8.300;2022-12-18T03:09:10;6.10;77.10
30594;DHT22;33199;47.590;8.300;2022-12-18T03:11:37;6.10;77.20
30594;DHT22;33199;47.590;8.300;2022-12-18T03:14:23;6.10;77.90
30594;DHT22;33199;47.590;8.300;2022-12-18T03:16:51;6.10;77.10
30594;DHT22;33199;47.590;8.300;2022-12-18T03:19:18;6.10;77.10
30594;DHT22;33199;47.590;8.300;2022-12-18T03:21:47;6.10;77.10
30594;DHT22;33199;47.590;8.300;2022-12-18T03:24:15;6.10;77.10
30594;DHT22;33199;47.590;8.300;2022-12-18T03:26:42;6.10;77.10
30594;DHT22;33199;47.590;8.300;2022-12-18T03:29:10;6.10;77.10
30594;DHT22;33199;47.590;8.300;2022-12-18T03:31:39;6.10;77.10
30594;DHT22;33199;47.590;8.300;2022-12-18T03:34:08;6.10;77.10
30594;DHT22;33199;47.590;8.300;2022-12-18T03:36:35;6.10;77.00
30594;DHT22;33199;47.590;8.300;2022-12-18T03:39:02;6.10;77.00
30594;DHT22;33199;47.590;8.300;2022-12-18T03:41:30;6.10;77.00
30594;DHT22;33199;47.590;8.300;2022-12-18T03:52:11;6.10;77.10
30594;DHT22;33199;47.590;8.300;2022-12-18T03:54:38;6.10;77.10
30594;DHT22;33199;47.590;8.300;2022-12-18T03:57:09;6.10;77.10
30594;DHT22;33199;47.590;8.300;2022-12-18T03:59:35;6.10;77.10
30594;DHT22;33199;47.590;8.300;2022-12-18T04:02:02;6.10;77.10
30594;DHT22;33199;47.590;8.300;2022-12-18T04:04:30;6.10;77.10
30594;DHT22;33199;47.590;8.300;2022-12-18T04:06:56;6.10;77.10
30594;DHT22;33199;47.590;8.300;2022-12-18T04:09:22;6.10;77.10
30594;DHT22;33199;47.590;8.300;2022-12-18T04:11:49;6.10;77.10
30594;DHT22;33199;47.590;8.300;2022-12-18T04:14:15;6.10;77.20
30594;DHT22;33199;47.590;8.300;2022-12-18T04:16:41;6.10;77.10
30594;DHT22;33199;47.590;8.300;2022-12-18T04:19:06;6.10;77.20
30594;DHT22;33199;47.590;8.300;2022-12-18T04:21:31;6.10;77.20
30594;DHT22;33199;47.590;8.300;2022-12-18T04:23:58;6.10;77.10
30594;DHT22;33199;47.590;8.300;2022-12-18T04:26:23;6.10;77.10
30594;DHT22;33199;47.590;8.300;2022-12-18T04:28:49;6.10;77.10
30594;DHT22;33199;47.590;8.300;2022-12-18T04:31:16;6.10;77.10
30594;DHT22;33199;47.590;8.300;2022-12-18T04:33:41;6.10;77.10
30594;DHT22;33199;47.590;8.300;2022-12-18T04:36:07;6.10;77.10
30594;DHT22;33199;47.590;8.300;2022-12-18T04:38:32;6.10;77.10
30594;DHT22;33199;47.590;8.300;2022-12-18T04:40:58;6.10;77.10
30594;DHT22;33199;47.590;8.300;2022-12-18T04:43:23;6.10;77.10
30594;DHT22;33199;47.590;8.300;2022-12-18T04:45:49;6.10;77.00
30594;DHT22;33199;47.590;8.300;2022-12-18T04:48:14;6.10;77.00
30594;DHT22;33199;47.590;8.300;2022-12-18T04:50:40;6.10;77.00
30594;DHT22;33199;47.590;8.300;2022-12-18T04:53:06;6.10;77.00
30594;DHT22;33199;47.590;8.300;2022-12-18T04:55:33;6.10;77.00
30594;DHT22;33199;47.590;8.300;2022-12-18T04:57:58;6.10;77.10
30594;DHT22;33199;47.590;8.300;2022-12-18T05:00:24;6.10;77.00
30594;DHT22;33199;47.590;8.300;2022-12-18T05:02:49;6.10;77.00
30594;DHT22;33199;47.590;8.300;2022-12-18T05:05:16;6.10;77.00
30594;DHT22;33199;47.590;8.300;2022-12-18T05:07:41;6.10;77.00
30594;DHT22;33199;47.590;8.300;2022-12-18T05:10:07;6.10;77.00
30594;DHT22;33199;47.590;8.300;2022-12-18T05:12:33;6.10;76.90
30594;DHT22;33199;47.590;8.300;2022-12-18T05:14:58;6.10;76.90
30594;DHT22;33199;47.590;8.300;2022-12-18T05:17:24;6.10;77.00
30594;DHT22;33199;47.590;8.300;2022-12-18T05:19:49;6.10;77.00
30594;DHT22;33199;47.590;8.300;2022-12-18T05:22:15;6.10;77.00
30594;DHT22;33199;47.590;8.300;2022-12-18T05:24:40;6.10;77.00
30594;DHT22;33199;47.590;8.300;2022-12-18T05:27:06;6.10;76.90
30594;DHT22;33199;47.590;8.300;2022-12-18T05:29:31;6.10;77.00
30594;DHT22;33199;47.590;8.300;2022-12-18T05:31:57;6.10;77.80
30594;DHT22;33199;47.590;8.300;2022-12-18T05:34:22;6.10;77.00
30594;DHT22;33199;47.590;8.300;2022-12-18T05:36:48;6.10;77.00
30594;DHT22;33199;47.590;8.300;2022-12-18T05:39:13;6.10;77.10
30594;DHT22;33199;47.590;8.300;2022-12-18T05:41:39;6.10;77.00
30594;DHT22;33199;47.590;8.300;2022-12-18T05:44:04;6.10;77.00
30594;DHT22;33199;47.590;8.300;2022-12-18T05:46:30;6.10;77.10
30594;DHT22;33199;47.590;8.300;2022-12-18T05:48:58;6.10;77.00
30594;DHT22;33199;47.590;8.300;2022-12-18T05:51:23;6.10;77.00
30594;DHT22;33199;47.590;8.300;2022-12-18T05:53:49;6.10;77.00
30594;DHT22;33199;47.590;8.300;2022-12-18T05:56:16;6.10;77.00
30594;DHT22;33199;47.590;8.300;2022-12-18T05:58:42;6.10;76.90
30594;DHT22;33199;47.590;8.300;2022-12-18T06:03:33;6.10;76.90
30594;DHT22;33199;47.590;8.300;2022-12-18T06:05:58;6.10;77.00
30594;DHT22;33199;47.590;8.300;2022-12-18T06:08:24;6.00;77.00
30594;DHT22;33199;47.590;8.300;2022-12-18T06:10:50;6.10;77.10
30594;DHT22;33199;47.590;8.300;2022-12-18T06:13:17;6.10;77.00
30594;DHT22;33199;47.590;8.300;2022-12-18T06:15:43;6.10;77.00
30594;DHT22;33199;47.590;8.300;2022-12-18T06:18:08;6.10;77.00
30594;DHT22;33199;47.590;8.300;2022-12-18T06:20:34;6.10;77.00
30594;DHT22;33199;47.590;8.300;2022-12-18T06:23:01;6.10;76.90
30594;DHT22;33199;47.590;8.300;2022-12-18T06:25:27;6.10;77.00
30594;DHT22;33199;47.590;8.300;2022-12-18T06:27:52;6.00;77.00
30594;DHT22;33199;47.590;8.300;2022-12-18T06:30:18;6.10;77.10
30594;DHT22;33199;47.590;8.300;2022-12-18T06:32:43;6.00;77.00
30594;DHT22;33199;47.590;8.300;2022-12-18T06:35:10;6.10;77.00
30594;DHT22;33199;47.590;8.300;2022-12-18T06:37:35;6.10;77.10
30594;DHT22;33199;47.590;8.300;2022-12-18T06:40:01;6.10;77.00
30594;DHT22;33199;47.590;8.300;2022-12-18T06:42:26;6.10;77.00
30594;DHT22;33199;47.590;8.300;2022-12-18T06:44:53;6.10;77.00
30594;DHT22;33199;47.590;8.300;2022-12-18T06:47:19;6.10;77.00
30594;DHT22;33199;47.590;8.300;2022-12-18T06:49:44;6.10;77.00
30594;DHT22;33199;47.590;8.300;2022-12-18T06:52:09;6.10;77.00
30594;DHT22;33199;47.590;8.300;2022-12-18T06:54:35;6.10;76.90
30594;DHT22;33199;47.590;8.300;2022-12-18T06:57:00;6.10;77.00
30594;DHT22;33199;47.590;8.300;2022-12-18T06:59:26;6.10;77.00
30594;DHT22;33199;47.590;8.300;2022-12-18T07:01:51;6.10;77.00
30594;DHT22;33199;47.590;8.300;2022-12-18T07:04:17;6.10;77.00
30594;DHT22;33199;47.590;8.300;2022-12-18T07:06:42;6.10;77.00
30594;DHT22;33199;47.590;8.300;2022-12-18T07:09:08;6.10;77.00
30594;DHT22;33199;47.590;8.300;2022-12-18T07:11:33;6.10;77.10
30594;DHT22;33199;47.590;8.300;2022-12-18T07:13:59;6.10;77.10
30594;DHT22;33199;47.590;8.300;2022-12-18T07:16:24;6.10;77.10
30594;DHT22;33199;47.590;8.300;2022-12-18T07:18:50;6.10;77.10
30594;DHT22;33199;47.590;8.300;2022-12-18T07:21:16;6.10;77.10
30594;DHT22;33199;47.590;8.300;2022-12-18T07:23:42;6.10;77.10
30594;DHT22;33199;47.590;8.300;2022-12-18T07:26:08;6.10;77.20
30594;DHT22;33199;47.590;8.300;2022-12-18T07:28:35;6.10;77.10
30594;DHT22;33199;47.590;8.300;2022-12-18T07:31:07;6.10;77.10
30594;DHT22;33199;47.590;8.300;2022-12-18T07:33:33;6.10;77.10
30594;DHT22;33199;47.590;8.300;2022-12-18T07:35:59;6.00;77.00
30594;DHT22;33199;47.590;8.300;2022-12-18T07:38:25;6.10;77.10
30594;DHT22;33199;47.590;8.300;2022-12-18T07:40:50;6.10;77.10
30594;DHT22;33199;47.590;8.300;2022-12-18T07:43:16;6.10;77.10
30594;DHT22;33199;47.590;8.300;2022-12-18T07:45:42;6.10;76.90
30594;DHT22;33199;47.590;8.300;2022-12-18T07:48:07;6.10;76.90
30594;DHT22;33199;47.590;8.300;2022-12-18T07:50:33;6.10;77.00
30594;DHT22;33199;47.590;8.300;2022-12-18T07:52:58;6.10;77.00
30594;DHT22;33199;47.590;8.300;2022-12-18T07:55:29;6.10;77.10
30594;DHT22;33199;47.590;8.300;2022-12-18T07:57:54;6.10;77.10
30594;DHT22;33199;47.590;8.300;2022-12-18T08:00:20;6.10;77.10
30594;DHT22;33199;47.590;8.300;2022-12-18T08:02:45;6.10;77.10
30594;DHT22;33199;47.590;8.300;2022-12-18T08:05:11;6.10;77.10
30594;DHT22;33199;47.590;8.300;2022-12-18T08:07:36;6.10;77.10
30594;DHT22;33199;47.590;8.300;2022-12-18T08:10:02;6.10;77.10
30594;DHT22;33199;47.590;8.300;2022-12-18T08:12:27;6.10;77.10
30594;DHT22;33199;47.590;8.300;2022-12-18T08:14:53;6.10;77.10
30594;DHT22;33199;47.590;8.300;2022-12-18T08:17:19;6.10;77.10
30594;DHT22;33199;47.590;8.300;2022-12-18T08:19:45;6.00;77.00
30594;DHT22;33199;47.590;8.300;2022-12-18T08:22:10;6.00;77.10
30594;DHT22;33199;47.590;8.300;2022-12-18T08:24:36;6.10;77.10
30594;DHT22;33199;47.590;8.300;2022-12-18T08:27:01;6.10;77.00
30594;DHT22;33199;47.590;8.300;2022-12-18T08:29:26;6.10;77.10
30594;DHT22;33199;47.590;8.300;2022-12-18T08:31:52;6.00;77.10
30594;DHT22;33199;47.590;8.300;2022-12-18T08:34:17;6.10;77.10
30594;DHT22;33199;47.590;8.300;2022-12-18T08:36:43;6.10;77.00
30594;DHT22;33199;47.590;8.300;2022-12-18T08:39:08;6.10;77.10
30594;DHT22;33199;47.590;8.300;2022-12-18T08:41:34;6.10;77.10
30594;DHT22;33199;47.590;8.300;2022-12-18T08:43:59;6.10;77.20
30594;DHT22;33199;47.590;8.300;2022-12-18T08:46:43;6.00;77.20
30594;DHT22;33199;47.590;8.300;2022-12-18T08:49:09;6.10;77.20
30594;DHT22;33199;47.590;8.300;2022-12-18T08:51:35;6.10;77.20
30594;DHT22;33199;47.590;8.300;2022-12-18T08:54:01;6.10;77.20
30594;DHT22;33199;47.590;8.300;2022-12-18T08:56:27;6.00;77.10
30594;DHT22;33199;47.590;8.300;2022-12-18T08:58:53;6.10;77.20
30594;DHT22;33199;47.590;8.300;2022-12-18T09:01:19;6.10;77.20
30594;DHT22;33199;47.590;8.300;2022-12-18T09:03:48;6.10;77.10
30594;DHT22;33199;47.590;8.300;2022-12-18T09:06:14;6.00;77.10
30594;DHT22;33199;47.590;8.300;2022-12-18T09:08:41;6.10;77.10
30594;DHT22;33199;47.590;8.300;2022-12-18T09:11:11;6.10;77.20
30594;DHT22;33199;47.590;8.300;2022-12-18T09:13:37;6.00;77.20
30594;DHT22;33199;47.590;8.300;2022-12-18T09:16:02;6.10;77.30
30594;DHT22;33199;47.590;8.300;2022-12-18T09:18:28;6.10;77.10
30594;DHT22;33199;47.590;8.300;2022-12-18T09:20:53;6.00;77.20
30594;DHT22;33199;47.590;8.300;2022-12-18T09:23:19;6.10;77.20
30594;DHT22;33199;47.590;8.300;2022-12-18T09:25:45;6.00;77.10
30594;DHT22;33199;47.590;8.300;2022-12-18T09:28:11;6.00;70.10
30594;DHT22;33199;47.590;8.300;2022-12-18T09:30:41;5.80;66.70
30594;DHT22;33199;47.590;8.300;2022-12-18T09:33:07;5.60;66.90
30594;DHT22;33199;47.590;8.300;2022-12-18T09:35:35;5.40;66.90
30594;DHT22;33199;47.590;8.300;2022-12-18T09:38:04;5.40;68.50
30594;DHT22;33199;47.590;8.300;2022-12-18T09:40:33;5.40;70.90
30594;DHT22;33199;47.590;8.300;2022-12-18T09:43:00;5.40;72.50
30594;DHT22;33199;47.590;8.300;2022-12-18T09:45:29;5.50;72.80
30594;DHT22;33199;47.590;8.300;2022-12-18T09:47:56;5.50;72.80
30594;DHT22;33199;47.590;8.300;2022-12-18T09:50:24;5.50;73.10
30594;DHT22;33199;47.590;8.300;2022-12-18T09:52:51;5.60;73.50
30594;DHT22;33199;47.590;8.300;2022-12-18T09:55:23;5.60;73.50
30594;DHT22;33199;47.590;8.300;2022-12-18T09:57:51;5.60;73.50
30594;DHT22;33199;47.590;8.300;2022-12-18T10:00:19;5.70;73.80
30594;DHT22;33199;47.590;8.300;2022-12-18T10:02:45;5.70;73.90
30594;DHT22;33199;47.590;8.300;2022-12-18T10:05:17;5.70;74.00
30594;DHT22;33199;47.590;8.300;2022-12-18T10:07:55;5.70;74.10
30594;DHT22;33199;47.590;8.300;2022-12-18T10:10:32;5.70;74.30
30594;DHT22;33199;47.590;8.300;2022-12-18T10:13:02;5.70;74.40
30594;DHT22;33199;47.590;8.300;2022-12-18T10:15:38;5.70;74.40
30594;DHT22;33199;47.590;8.300;2022-12-18T10:20:46;5.80;74.60
30594;DHT22;33199;47.590;8.300;2022-12-18T10:28:23;5.80;74.90
30594;DHT22;33199;47.590;8.300;2022-12-18T10:30:49;5.80;74.90
30594;DHT22;33199;47.590;8.300;2022-12-18T10:33:19;5.80;74.90
30594;DHT22;33199;47.590;8.300;2022-12-18T10:35:45;5.80;74.90
30594;DHT22;33199;47.590;8.300;2022-12-18T10:40:50;5.80;74.90
30594;DHT22;33199;47.590;8.300;2022-12-18T10:43:16;5.80;75.00
30594;DHT22;33199;47.590;8.300;2022-12-18T10:45:49;5.80;74.90
30594;DHT22;33199;47.590;8.300;2022-12-18T10:48:22;5.80;75.10
30594;DHT22;33199;47.590;8.300;2022-12-18T10:50:49;5.80;75.00
30594;DHT22;33199;47.590;8.300;2022-12-18T10:53:18;5.90;75.20
30594;DHT22;33199;47.590;8.300;2022-12-18T10:55:44;5.80;75.10
30594;DHT22;33199;47.590;8.300;2022-12-18T11:01:07;5.80;75.10
30594;DHT22;33199;47.590;8.300;2022-12-18T11:06:01;5.90;75.30
30594;DHT22;33199;47.590;8.300;2022-12-18T11:08:27;5.90;75.40
30594;DHT22;33199;47.590;8.300;2022-12-18T11:10:52;5.90;75.40
30594;DHT22;33199;47.590;8.300;2022-12-18T11:13:21;5.90;75.40
30594;DHT22;33199;47.590;8.300;2022-12-18T11:15:48;5.90;75.30
30594;DHT22;33199;47.590;8.300;2022-12-18T11:21:09;5.90;75.40
30594;DHT22;33199;47.590;8.300;2022-12-18T11:23:35;5.90;75.40
30594;DHT22;33199;47.590;8.300;2022-12-18T11:26:02;5.90;75.40
30594;DHT22;33199;47.590;8.300;2022-12-18T11:31:20;5.90;75.50
30594;DHT22;33199;47.590;8.300;2022-12-18T11:36:24;5.90;75.50
30594;DHT22;33199;47.590;8.300;2022-12-18T11:38:51;5.90;75.60
30594;DHT22;33199;47.590;8.300;2022-12-18T11:44:27;5.90;75.60
30594;DHT22;33199;47.590;8.300;2022-12-18T11:46:59;5.90;75.60
30594;DHT22;33199;47.590;8.300;2022-12-18T11:49:26;5.90;75.60
30594;DHT22;33199;47.590;8.300;2022-12-18T11:54:22;5.90;75.60
30594;DHT22;33199;47.590;8.300;2022-12-18T11:56:51;5.90;75.60
30594;DHT22;33199;47.590;8.300;2022-12-18T12:02:00;5.90;75.60
30594;DHT22;33199;47.590;8.300;2022-12-18T12:17:22;5.90;75.70
30594;DHT22;33199;47.590;8.300;2022-12-18T12:20:08;5.90;75.70
30594;DHT22;33199;47.590;8.300;2022-12-18T12:38:37;6.00;75.80
30594;DHT22;33199;47.590;8.300;2022-12-18T12:41:06;6.00;75.80
30594;DHT22;33199;47.590;8.300;2022-12-18T12:43:53;5.90;75.80
30594;DHT22;33199;47.590;8.300;2022-12-18T12:46:22;6.00;75.90
30594;DHT22;33199;47.590;8.300;2022-12-18T12:53:43;6.00;75.80
30594;DHT22;33199;47.590;8.300;2022-12-18T12:56:09;6.00;75.70
30594;DHT22;33199;47.590;8.300;2022-12-18T13:01:24;6.00;75.80
30594;DHT22;33199;47.590;8.300;2022-12-18T13:04:07;6.00;75.90
30594;DHT22;33199;47.590;8.300;2022-12-18T13:06:43;6.00;75.90
30594;DHT22;33199;47.590;8.300;2022-12-18T13:09:11;6.00;75.90
30594;DHT22;33199;47.590;8.300;2022-12-18T13:11:44;6.00;75.90
30594;DHT22;33199;47.590;8.300;2022-12-18T13:14:38;6.00;75.90
30594;DHT22;33199;47.590;8.300;2022-12-18T13:19:50;6.00;76.00
30594;DHT22;33199;47.590;8.300;2022-12-18T13:22:23;5.90;76.00
30594;DHT22;33199;47.590;8.300;2022-12-18T13:24:49;6.00;76.00
30594;DHT22;33199;47.590;8.300;2022-12-18T13:29:59;5.90;76.00
30594;DHT22;33199;47.590;8.300;2022-12-18T13:32:25;6.00;76.00
30594;DHT22;33199;47.590;8.300;2022-12-18T13:37:44;6.00;76.00
30594;DHT22;33199;47.590;8.300;2022-12-18T13:40:37;6.00;76.10
30594;DHT22;33199;47.590;8.300;2022-12-18T13:45:47;6.00;76.10
30594;DHT22;33199;47.590;8.300;2022-12-18T13:48:15;6.00;76.10
30594;DHT22;33199;47.590;8.300;2022-12-18T13:50:41;6.00;76.00
30594;DHT22;33199;47.590;8.300;2022-12-18T13:53:11;6.00;76.10
30594;DHT22;33199;47.590;8.300;2022-12-18T13:55:43;6.00;76.10
30594;DHT22;33199;47.590;8.300;2022-12-18T13:58:11;6.00;76.10
30594;DHT22;33199;47.590;8.300;2022-12-18T14:00:40;6.00;76.10
30594;DHT22;33199;47.590;8.300;2022-12-18T14:03:21;6.00;76.10
30594;DHT22;33199;47.590;8.300;2022-12-18T14:05:51;6.00;76.10
30594;DHT22;33199;47.590;8.300;2022-12-18T14:08:17;6.00;76.00
30594;DHT22;33199;47.590;8.300;2022-12-18T14:10:44;6.00;76.10
30594;DHT22;33199;47.590;8.300;2022-12-18T14:13:10;6.00;76.10
30594;DHT22;33199;47.590;8.300;2022-12-18T14:15:40;6.00;76.00
30594;DHT22;33199;47.590;8.300;2022-12-18T14:18:19;6.00;76.10
30594;DHT22;33199;47.590;8.300;2022-12-18T14:20:45;6.00;76.10
30594;DHT22;33199;47.590;8.300;2022-12-18T14:25:54;6.00;76.10
30594;DHT22;33199;47.590;8.300;2022-12-18T14:28:19;6.00;76.00
30594;DHT22;33199;47.590;8.300;2022-12-18T14:30:47;6.00;76.00
30594;DHT22;33199;47.590;8.300;2022-12-18T14:33:17;6.00;76.10
30594;DHT22;33199;47.590;8.300;2022-12-18T14:40:57;6.00;76.00
30594;DHT22;33199;47.590;8.300;2022-12-18T14:43:23;6.00;76.10
30594;DHT22;33199;47.590;8.300;2022-12-18T14:45:49;6.00;76.10
30594;DHT22;33199;47.590;8.300;2022-12-18T14:50:40;6.00;76.10
30594;DHT22;33199;47.590;8.300;2022-12-18T14:53:06;6.00;76.10
30594;DHT22;33199;47.590;8.300;2022-12-18T14:55:31;6.00;76.20
30594;DHT22;33199;47.590;8.300;2022-12-18T14:57:57;6.00;76.20
30594;DHT22;33199;47.590;8.300;2022-12-18T15:00:24;6.00;76.10
30594;DHT22;33199;47.590;8.300;2022-12-18T15:02:50;6.00;76.10
30594;DHT22;33199;47.590;8.300;2022-12-18T15:05:24;6.00;76.10
30594;DHT22;33199;47.590;8.300;2022-12-18T15:07:51;6.00;76.10
30594;DHT22;33199;47.590;8.300;2022-12-18T15:10:20;6.00;76.10
30594;DHT22;33199;47.590;8.300;2022-12-18T15:12:47;6.00;76.10
30594;DHT22;33199;47.590;8.300;2022-12-18T15:17:58;6.00;76.10
30594;DHT22;33199;47.590;8.300;2022-12-18T15:20:24;6.00;76.10
30594;DHT22;33199;47.590;8.300;2022-12-18T15:22:49;6.00;76.10
30594;DHT22;33199;47.590;8.300;2022-12-18T15:25:27;6.00;76.10
30594;DHT22;33199;47.590;8.300;2022-12-18T15:27:56;6.00;76.10
30594;DHT22;33199;47.590;8.300;2022-12-18T15:30:22;6.00;76.10
30594;DHT22;33199;47.590;8.300;2022-12-18T15:32:49;6.00;76.10
30594;DHT22;33199;47.590;8.300;2022-12-18T15:35:16;6.00;76.10
30594;DHT22;33199;47.590;8.300;2022-12-18T15:37:42;6.00;76.20
30594;DHT22;33199;47.590;8.300;2022-12-18T15:40:17;6.00;76.20
30594;DHT22;33199;47.590;8.300;2022-12-18T15:42:43;6.00;76.20
30594;DHT22;33199;47.590;8.300;2022-12-18T15:45:27;6.00;76.20
30594;DHT22;33199;47.590;8.300;2022-12-18T15:47:53;6.00;76.20
30594;DHT22;33199;47.590;8.300;2022-12-18T15:50:18;6.00;76.20
30594;DHT22;33199;47.590;8.300;2022-12-18T15:52:45;6.00;76.20
30594;DHT22;33199;47.590;8.300;2022-12-18T15:55:14;6.00;76.20
30594;DHT22;33199;47.590;8.300;2022-12-18T15:57:58;6.00;76.20
30594;DHT22;33199;47.590;8.300;2022-12-18T16:00:23;6.00;76.30
30594;DHT22;33199;47.590;8.300;2022-12-18T16:02:49;6.00;76.20
30594;DHT22;33199;47.590;8.300;2022-12-18T16:05:15;6.00;76.20
30594;DHT22;33199;47.590;8.300;2022-12-18T16:07:42;6.00;76.20
30594;DHT22;33199;47.590;8.300;2022-12-18T16:10:07;6.00;76.20
30594;DHT22;33199;47.590;8.300;2022-12-18T16:12:33;6.00;76.20
30594;DHT22;33199;47.590;8.300;2022-12-18T16:14:58;6.00;76.20
30594;DHT22;33199;47.590;8.300;2022-12-18T16:17:24;6.00;76.20
30594;DHT22;33199;47.590;8.300;2022-12-18T16:19:49;6.00;76.20
30594;DHT22;33199;47.590;8.300;2022-12-18T16:24:44;6.00;76.20
30594;DHT22;33199;47.590;8.300;2022-12-18T16:27:09;6.00;76.20
30594;DHT22;33199;47.590;8.300;2022-12-18T16:29:35;6.00;76.30
30594;DHT22;33199;47.590;8.300;2022-12-18T16:32:00;6.00;76.20
30594;DHT22;33199;47.590;8.300;2022-12-18T16:34:27;6.00;76.20
30594;DHT22;33199;47.590;8.300;2022-12-18T16:36:55;6.00;76.20
30594;DHT22;33199;47.590;8.300;2022-12-18T16:39:21;6.00;76.20
30594;DHT22;33199;47.590;8.300;2022-12-18T16:41:47;6.00;76.20
30594;DHT22;33199;47.590;8.300;2022-12-18T16:44:13;6.00;76.20
30594;DHT22;33199;47.590;8.300;2022-12-18T16:46:39;6.00;76.20
30594;DHT22;33199;47.590;8.300;2022-12-18T16:49:04;6.10;76.20
30594;DHT22;33199;47.590;8.300;2022-12-18T16:51:30;6.00;76.20
30594;DHT22;33199;47.590;8.300;2022-12-18T16:53:58;6.00;76.20
30594;DHT22;33199;47.590;8.300;2022-12-18T16:56:24;6.00;76.20
30594;DHT22;33199;47.590;8.300;2022-12-18T16:58:53;6.00;76.30
30594;DHT22;33199;47.590;8.300;2022-12-18T17:01:18;6.00;76.20
30594;DHT22;33199;47.590;8.300;2022-12-18T17:03:44;6.00;76.30
30594;DHT22;33199;47.590;8.300;2022-12-18T17:06:09;6.00;76.30
30594;DHT22;33199;47.590;8.300;2022-12-18T17:08:35;6.00;76.30
30594;DHT22;33199;47.590;8.300;2022-12-18T17:11:04;6.00;76.30
30594;DHT22;33199;47.590;8.300;2022-12-18T17:13:30;6.00;76.30
30594;DHT22;33199;47.590;8.300;2022-12-18T17:16:00;6.00;76.30
30594;DHT22;33199;47.590;8.300;2022-12-18T17:18:26;6.00;76.30
30594;DHT22;33199;47.590;8.300;2022-12-18T17:20:52;6.00;76.30
30594;DHT22;33199;47.590;8.300;2022-12-18T17:23:17;6.00;76.30
30594;DHT22;33199;47.590;8.300;2022-12-18T17:25:43;6.00;76.30
30594;DHT22;33199;47.590;8.300;2022-12-18T17:28:08;6.00;76.30
30594;DHT22;33199;47.590;8.300;2022-12-18T17:30:34;6.00;76.20
30594;DHT22;33199;47.590;8.300;2022-12-18T17:32:59;6.00;76.30
30594;DHT22;33199;47.590;8.300;2022-12-18T17:35:24;6.00;76.30
30594;DHT22;33199;47.590;8.300;2022-12-18T17:37:50;6.00;76.30
30594;DHT22;33199;47.590;8.300;2022-12-18T17:40:15;6.00;76.30
30594;DHT22;33199;47.590;8.300;2022-12-18T17:42:41;6.00;76.20
30594;DHT22;33199;47.590;8.300;2022-12-18T17:45:06;6.00;76.20
30594;DHT22;33199;47.590;8.300;2022-12-18T17:47:32;6.00;76.20